Detroit, Michigan
Traffic Map
Current Weather Conditions
Detroit, Michigan
Overcast
Overcast
21°
Feels Like: 12°
Wind Chill: 12° Ceiling: 10000
Heat Index: 21° Visibility: 15mi
Dew Point: 16° Wind: 8mph
Humidity: 80% Direction: 200° (SSW)
Pressure: 30.33in Gusts: 0mph
Raw Report DataCYQG 030700Z 20007KT 15SM OVC100 M06/M09 A3033 RMK AC8 SLP281
Traffic Incident Summary
Active as of:
Severity:
Category:
InformationThere was an issue retrieving the traffic information for this location. Please try a different location or try again shortly.
Advertisements
Track Severe Weather on mobile